createdAt,value
2022-07-30T00:01:24.046Z,5.65
2022-07-30T00:04:26.872Z,5.43
2022-07-30T00:07:29.700Z,5.18
2022-07-30T00:10:33.980Z,7.43
2022-07-30T00:13:36.722Z,5.45
2022-07-30T00:16:39.510Z,8.32
2022-07-30T00:19:42.126Z,6.78
2022-07-30T00:22:47.546Z,5.47
2022-07-30T00:25:51.550Z,4.87
2022-07-30T00:28:54.368Z,5.75
2022-07-30T00:31:57.002Z,5.18
2022-07-30T00:34:59.689Z,6.22
2022-07-30T00:38:02.426Z,5.65
2022-07-30T00:41:06.613Z,5.43
2022-07-30T00:44:09.292Z,4.40
2022-07-30T00:47:12.074Z,5.22
2022-07-30T00:50:16.584Z,4.63
2022-07-30T00:53:19.361Z,6.80
2022-07-30T00:56:23.348Z,7.00
2022-07-30T00:59:27.962Z,4.75
2022-07-30T01:02:30.756Z,6.15
2022-07-30T01:05:33.844Z,6.80
2022-07-30T01:08:36.636Z,5.55
2022-07-30T01:11:43.317Z,5.17
2022-07-30T01:14:46.102Z,6.70
2022-07-30T01:17:53.090Z,4.85
2022-07-30T01:21:06.545Z,6.45
2022-07-30T01:24:26.731Z,4.93
2022-07-30T01:27:33.725Z,5.67
2022-07-30T01:30:41.006Z,5.30
2022-07-30T01:33:46.848Z,7.65
2022-07-30T01:36:50.868Z,4.68
2022-07-30T01:39:54.937Z,5.03
2022-07-30T01:43:01.786Z,5.83
2022-07-30T01:46:06.741Z,5.78
2022-07-30T01:49:11.514Z,6.75
2022-07-30T01:52:17.827Z,4.38
2022-07-30T01:55:26.077Z,4.90
2022-07-30T01:58:33.142Z,6.10
2022-07-30T02:01:35.826Z,4.38
2022-07-30T02:04:38.824Z,6.32
2022-07-30T02:07:47.053Z,8.18
2022-07-30T02:10:53.802Z,5.88
2022-07-30T02:13:58.510Z,5.80
2022-07-30T02:17:04.211Z,7.28
2022-07-30T02:20:10.709Z,6.10
2022-07-30T02:23:17.147Z,4.25
2022-07-30T02:26:24.529Z,5.13
2022-07-30T02:29:33.309Z,6.53
2022-07-30T02:32:38.574Z,6.03
2022-07-30T02:35:42.222Z,5.47
2022-07-30T02:38:45.710Z,5.45
2022-07-30T02:41:51.102Z,5.38
2022-07-30T02:44:57.568Z,4.67
2022-07-30T02:48:06.717Z,6.22
2022-07-30T02:51:11.272Z,5.18
2022-07-30T02:54:15.863Z,5.65
2022-07-30T02:57:22.216Z,4.57
2022-07-30T03:00:28.239Z,4.77
2022-07-30T03:03:32.157Z,5.25
2022-07-30T03:06:36.085Z,5.13
2022-07-30T03:09:51.375Z,5.20
2022-07-30T03:12:56.547Z,6.85
2022-07-30T03:16:02.576Z,4.27
2022-07-30T03:19:09.530Z,6.93
2022-07-30T03:22:13.855Z,5.50
2022-07-30T03:25:19.115Z,5.63
2022-07-30T03:28:23.204Z,5.32
2022-07-30T03:31:28.415Z,5.37
2022-07-30T03:34:39.246Z,5.07
2022-07-30T03:37:42.678Z,5.03
2022-07-30T03:40:46.291Z,4.38
2022-07-30T03:43:50.442Z,4.53
2022-07-30T03:46:56.152Z,5.43
2022-07-30T03:49:59.352Z,4.90
2022-07-30T03:53:03.968Z,7.60
2022-07-30T03:56:07.366Z,5.13
2022-07-30T03:59:11.646Z,6.03
2022-07-30T04:02:15.903Z,5.70
2022-07-30T04:05:18.588Z,4.93
2022-07-30T04:08:21.549Z,5.43
2022-07-30T04:11:41.480Z,7.78
2022-07-30T04:14:46.445Z,5.25
2022-07-30T04:17:55.088Z,6.83
2022-07-30T04:20:59.593Z,5.05
2022-07-30T04:24:05.199Z,7.03
2022-07-30T04:27:08.319Z,4.90
2022-07-30T04:30:12.121Z,5.40
2022-07-30T04:33:16.902Z,4.83
2022-07-30T04:36:19.701Z,4.90
2022-07-30T04:39:22.344Z,5.43
2022-07-30T04:42:25.819Z,5.13
2022-07-30T04:45:28.652Z,5.45
2022-07-30T04:48:32.750Z,5.43
2022-07-30T04:51:38.377Z,4.72
2022-07-30T04:54:44.617Z,5.97
2022-07-30T04:57:49.314Z,6.10
2022-07-30T05:00:53.206Z,6.15
2022-07-30T05:04:00.058Z,7.07
2022-07-30T05:07:04.507Z,6.80
2022-07-30T05:10:09.154Z,5.88
2022-07-30T05:13:14.077Z,5.45
2022-07-30T05:16:17.232Z,5.80
2022-07-30T05:19:22.152Z,6.13
2022-07-30T05:22:25.727Z,6.68
2022-07-30T05:25:28.628Z,6.28
2022-07-30T05:28:31.251Z,5.20
2022-07-30T05:31:34.143Z,4.70
2022-07-30T05:34:38.818Z,5.20
2022-07-30T05:37:41.613Z,4.78
2022-07-30T05:40:44.512Z,5.68
2022-07-30T05:43:47.287Z,5.85
2022-07-30T05:46:59.018Z,4.80
2022-07-30T05:50:05.166Z,5.73
2022-07-30T05:53:08.280Z,8.88
2022-07-30T05:56:11.056Z,5.20
2022-07-30T05:59:13.808Z,5.70
2022-07-30T06:02:16.504Z,6.25
2022-07-30T06:05:20.975Z,6.97
2022-07-30T06:08:23.659Z,6.53
2022-07-30T06:11:26.467Z,5.55
2022-07-30T06:14:29.054Z,7.43
2022-07-30T06:17:31.863Z,7.40
2022-07-30T06:20:45.257Z,4.97
2022-07-30T06:23:47.917Z,5.43
2022-07-30T06:26:50.704Z,5.45
2022-07-30T06:29:54.790Z,5.43
2022-07-30T06:32:57.596Z,5.45
2022-07-30T06:36:01.630Z,6.23
2022-07-30T06:39:04.869Z,5.28
2022-07-30T06:42:07.724Z,4.97
2022-07-30T06:45:11.707Z,5.40
2022-07-30T06:48:14.588Z,4.32
2022-07-30T06:51:18.539Z,4.43
2022-07-30T06:54:21.363Z,4.13
2022-07-30T06:57:24.001Z,5.60
2022-07-30T07:00:26.999Z,3.72
2022-07-30T07:03:39.779Z,4.60
2022-07-30T07:06:44.725Z,6.43
2022-07-30T07:09:47.368Z,5.28
2022-07-30T07:12:50.165Z,3.97
2022-07-30T07:15:53.027Z,5.18
2022-07-30T07:18:56.216Z,5.78
2022-07-30T07:22:00.348Z,4.13
2022-07-30T07:25:03.302Z,4.45
2022-07-30T07:28:12.062Z,5.18
2022-07-30T07:32:05.903Z,4.47
2022-07-30T07:34:38.794Z,5.70
2022-07-30T07:37:42.807Z,5.17
2022-07-30T07:40:45.523Z,3.72
2022-07-30T07:43:48.145Z,4.55
2022-07-30T07:46:50.932Z,4.15
2022-07-30T07:49:56.488Z,4.00
2022-07-30T07:53:00.850Z,4.10
2022-07-30T07:56:03.656Z,4.10
2022-07-30T07:59:07.053Z,3.58
2022-07-30T08:02:11.238Z,4.70
2022-07-30T08:05:14.206Z,6.05
2022-07-30T08:08:18.344Z,3.30
2022-07-30T08:11:21.061Z,3.67
2022-07-30T08:14:23.877Z,4.45
2022-07-30T08:17:26.644Z,5.60
2022-07-30T08:20:33.297Z,5.05
2022-07-30T08:23:42.200Z,3.87
2022-07-30T08:26:45.405Z,4.30
2022-07-30T08:29:48.123Z,5.30
2022-07-30T08:32:50.975Z,3.90
2022-07-30T08:35:59.187Z,3.70
2022-07-30T08:39:08.598Z,6.50
2022-07-30T08:42:14.232Z,4.68
2022-07-30T08:45:18.824Z,4.90
2022-07-30T08:48:25.141Z,5.07
2022-07-30T08:51:27.986Z,5.57
2022-07-30T08:54:32.193Z,5.17
2022-07-30T08:57:35.924Z,4.65
2022-07-30T09:00:38.702Z,5.78
2022-07-30T09:03:43.914Z,4.43
2022-07-30T09:06:47.201Z,6.40
2022-07-30T09:09:52.320Z,3.80
2022-07-30T09:12:55.126Z,4.75
2022-07-30T09:15:58.209Z,5.13
2022-07-30T09:19:13.279Z,5.32
2022-07-30T09:22:17.394Z,8.30
2022-07-30T09:25:46.129Z,4.40
2022-07-30T09:28:51.008Z,4.43
2022-07-30T09:31:58.370Z,4.70
2022-07-30T09:35:13.480Z,5.05
2022-07-30T09:38:16.850Z,4.68
2022-07-30T09:41:39.365Z,5.67
2022-07-30T09:44:42.511Z,5.00
2022-07-30T09:47:48.326Z,4.22
2022-07-30T09:50:52.185Z,4.95
2022-07-30T09:53:57.040Z,4.25
2022-07-30T09:57:22.686Z,4.63
2022-07-30T10:00:31.168Z,3.83
2022-07-30T10:03:41.981Z,4.30
2022-07-30T10:06:45.179Z,3.28
2022-07-30T10:09:49.778Z,6.13
2022-07-30T10:12:58.052Z,8.13
2022-07-30T10:16:01.444Z,9.15
2022-07-30T10:19:04.946Z,3.75
2022-07-30T10:22:11.586Z,3.70
2022-07-30T10:25:16.187Z,6.03
2022-07-30T10:28:21.390Z,5.10
2022-07-30T10:31:46.666Z,4.10
2022-07-30T10:34:50.337Z,6.50
2022-07-30T10:37:53.822Z,4.22
2022-07-30T10:41:01.774Z,4.93
2022-07-30T10:44:31.184Z,3.70
2022-07-30T10:47:40.466Z,4.32
2022-07-30T10:50:53.398Z,4.13
2022-07-30T10:53:56.112Z,4.15
2022-07-30T10:57:05.263Z,3.38
2022-07-30T11:00:15.660Z,4.20
2022-07-30T11:03:23.618Z,4.53
2022-07-30T11:06:43.682Z,4.68
2022-07-30T11:09:49.782Z,3.85
2022-07-30T11:13:09.680Z,4.15
2022-07-30T11:16:13.688Z,4.87
2022-07-30T11:19:56.746Z,4.38
2022-07-30T11:22:44.506Z,4.32
2022-07-30T11:25:51.537Z,3.28
2022-07-30T11:28:55.000Z,4.35
2022-07-30T11:32:01.809Z,3.10
2022-07-30T11:35:23.374Z,4.38
2022-07-30T11:38:26.253Z,5.20
2022-07-30T11:41:29.209Z,4.32
2022-07-30T11:44:32.100Z,5.18
2022-07-30T11:47:36.422Z,4.13
2022-07-30T11:50:39.643Z,3.22
2022-07-30T11:53:42.697Z,4.15
2022-07-30T11:56:53.526Z,3.50
2022-07-30T11:59:56.856Z,4.22
2022-07-30T12:03:03.950Z,3.13
2022-07-30T12:06:09.282Z,5.00
2022-07-30T12:09:12.242Z,3.72
2022-07-30T12:12:23.719Z,4.82
2022-07-30T12:15:33.220Z,3.30
2022-07-30T12:18:37.288Z,5.07
2022-07-30T12:21:39.986Z,4.35
2022-07-30T12:24:42.794Z,5.37
2022-07-30T12:27:52.029Z,3.22
2022-07-30T12:30:56.051Z,3.95
2022-07-30T12:34:00.674Z,4.05
2022-07-30T12:37:09.947Z,3.90
2022-07-30T12:40:15.374Z,4.40
2022-07-30T12:43:18.195Z,2.90
2022-07-30T12:46:23.023Z,3.20
2022-07-30T12:49:37.581Z,3.75
2022-07-30T12:52:50.181Z,3.47
2022-07-30T12:55:53.221Z,4.03
2022-07-30T12:58:57.547Z,4.20
2022-07-30T13:02:03.499Z,4.53
2022-07-30T13:05:11.290Z,3.22
2022-07-30T13:08:14.801Z,3.63
2022-07-30T13:11:18.860Z,3.78
2022-07-30T13:14:24.034Z,3.20
2022-07-30T13:17:29.543Z,3.83
2022-07-30T13:20:33.595Z,3.42
2022-07-30T13:23:36.970Z,4.37
2022-07-30T13:26:39.740Z,3.42
2022-07-30T13:29:42.464Z,4.22
2022-07-30T13:32:45.056Z,3.85
2022-07-30T13:35:49.244Z,4.50
2022-07-30T13:38:52.090Z,3.40
2022-07-30T13:41:55.034Z,5.30
2022-07-30T13:44:57.689Z,3.70
2022-07-30T13:48:00.479Z,3.70
2022-07-30T13:51:05.860Z,3.40
2022-07-30T13:54:08.610Z,3.40
2022-07-30T13:57:15.187Z,4.53
2022-07-30T14:00:18.190Z,4.27
2022-07-30T14:03:20.969Z,3.97
2022-07-30T14:06:25.308Z,3.88
2022-07-30T14:09:28.082Z,4.80
2022-07-30T14:12:31.092Z,3.33
2022-07-30T14:15:34.006Z,3.37
2022-07-30T14:18:36.782Z,4.43
2022-07-30T14:21:40.787Z,3.88
2022-07-30T14:24:43.620Z,3.83
2022-07-30T14:27:46.620Z,3.33
2022-07-30T14:30:51.146Z,3.50
2022-07-30T14:33:53.791Z,5.00
2022-07-30T14:36:58.246Z,4.15
2022-07-30T14:40:01.192Z,6.57
2022-07-30T14:43:03.887Z,3.85
2022-07-30T14:46:09.369Z,5.20
2022-07-30T14:49:12.162Z,4.20
2022-07-30T14:52:19.912Z,4.70
2022-07-30T14:55:22.630Z,4.22
2022-07-30T14:58:25.619Z,4.07
2022-07-30T15:01:28.280Z,3.30
2022-07-30T15:04:31.036Z,4.43
2022-07-30T15:07:35.107Z,4.55
2022-07-30T15:10:38.168Z,3.78
2022-07-30T15:13:50.200Z,4.15
2022-07-30T15:16:53.465Z,5.33
2022-07-30T15:19:56.107Z,4.10
2022-07-30T15:23:00.152Z,3.38
2022-07-30T15:26:02.755Z,4.78
2022-07-30T15:29:05.898Z,3.25
2022-07-30T15:32:10.111Z,3.30
2022-07-30T15:35:14.052Z,3.77
2022-07-30T15:38:18.304Z,4.88
2022-07-30T15:41:21.121Z,4.22
2022-07-30T15:44:23.827Z,3.55
2022-07-30T15:47:28.753Z,4.30
2022-07-30T15:50:31.530Z,3.30
2022-07-30T15:53:35.538Z,4.05
2022-07-30T15:56:38.298Z,4.05
2022-07-30T15:59:41.035Z,4.28
2022-07-30T16:02:43.861Z,3.93
2022-07-30T16:05:51.409Z,3.93
2022-07-30T16:08:56.679Z,4.70
2022-07-30T16:11:59.746Z,3.55
2022-07-30T16:15:02.537Z,2.63
2022-07-30T16:18:06.286Z,4.40
2022-07-30T16:21:09.052Z,4.07
2022-07-30T16:24:13.056Z,3.92
2022-07-30T16:27:15.704Z,4.30
2022-07-30T16:30:18.530Z,3.92
2022-07-30T16:33:21.733Z,3.53
2022-07-30T16:36:24.733Z,4.97
2022-07-30T16:39:28.779Z,3.58
2022-07-30T16:42:31.795Z,4.40
2022-07-30T16:45:34.949Z,3.72
2022-07-30T16:48:37.609Z,4.03
2022-07-30T16:51:40.944Z,3.50
2022-07-30T16:54:44.989Z,8.73
2022-07-30T16:57:47.725Z,4.53
2022-07-30T17:00:50.433Z,4.53
2022-07-30T17:03:53.276Z,3.47
2022-07-30T17:06:55.923Z,3.55
2022-07-30T17:10:00.065Z,3.78
2022-07-30T17:13:02.793Z,4.50
2022-07-30T17:16:07.202Z,3.57
2022-07-30T17:19:10.078Z,3.63
2022-07-30T17:22:13.112Z,5.65
2022-07-30T17:25:17.303Z,5.32
2022-07-30T17:28:26.840Z,4.57
2022-07-30T17:31:29.923Z,3.17
2022-07-30T17:34:32.630Z,3.53
2022-07-30T17:37:35.429Z,4.68
2022-07-30T17:40:39.721Z,3.47
2022-07-30T17:43:42.362Z,4.43
2022-07-30T17:46:45.170Z,3.67
2022-07-30T17:49:47.830Z,4.18
2022-07-30T17:52:50.594Z,3.50
2022-07-30T17:55:57.215Z,4.05
2022-07-30T17:59:00.793Z,4.22
2022-07-30T18:02:04.619Z,4.27
2022-07-30T18:05:08.931Z,3.67
2022-07-30T18:08:11.589Z,5.20
2022-07-30T18:11:15.896Z,4.13
2022-07-30T18:14:18.543Z,3.47
2022-07-30T18:17:21.313Z,3.90
2022-07-30T18:20:24.098Z,3.67
2022-07-30T18:23:28.015Z,3.97
2022-07-30T18:26:40.738Z,5.10
2022-07-30T18:29:43.608Z,5.65
2022-07-30T18:32:46.478Z,4.97
2022-07-30T18:35:49.147Z,4.68
2022-07-30T18:38:51.960Z,4.88
2022-07-30T18:41:56.055Z,3.88
2022-07-30T18:44:58.873Z,3.85
2022-07-30T18:48:01.576Z,5.40
2022-07-30T18:51:05.419Z,5.68
2022-07-30T18:54:08.352Z,8.75
2022-07-30T18:57:14.467Z,12.65
2022-07-30T19:00:35.497Z,11.95
2022-07-30T19:03:38.805Z,9.03
2022-07-30T19:06:41.646Z,9.02
2022-07-30T19:09:45.116Z,10.50
2022-07-30T19:12:49.259Z,8.82
2022-07-30T19:15:51.998Z,7.05
2022-07-30T19:18:54.781Z,6.50
2022-07-30T19:21:57.505Z,5.93
2022-07-30T19:25:00.292Z,4.78
2022-07-30T19:28:05.697Z,4.47
2022-07-30T19:31:08.346Z,4.97
2022-07-30T19:34:11.855Z,4.53
2022-07-30T19:37:14.644Z,4.55
2022-07-30T19:40:18.901Z,5.57
2022-07-30T19:43:24.689Z,4.85
2022-07-30T19:46:27.709Z,5.32
2022-07-30T19:49:32.397Z,4.63
2022-07-30T19:52:37.792Z,4.30
2022-07-30T19:55:41.117Z,4.22
2022-07-30T19:58:46.370Z,5.38
2022-07-30T20:01:51.901Z,5.03
2022-07-30T20:04:54.862Z,5.40
2022-07-30T20:07:58.649Z,4.97
2022-07-30T20:11:02.480Z,3.55
2022-07-30T20:14:07.604Z,5.22
2022-07-30T20:17:10.804Z,4.03
2022-07-30T20:20:13.740Z,4.30
2022-07-30T20:23:16.370Z,4.13
2022-07-30T20:26:19.273Z,3.85
2022-07-30T20:29:23.794Z,5.07
2022-07-30T20:32:27.253Z,3.75
2022-07-30T20:35:29.899Z,3.50
2022-07-30T20:38:33.870Z,4.47
2022-07-30T20:41:39.791Z,3.30
2022-07-30T20:44:49.321Z,3.97
2022-07-30T20:47:56.026Z,4.32
2022-07-30T20:50:59.337Z,3.87
2022-07-30T20:54:03.617Z,4.88
2022-07-30T20:57:07.363Z,5.93
2022-07-30T21:00:20.322Z,5.25
2022-07-30T21:03:23.243Z,5.97
2022-07-30T21:06:27.214Z,4.67
2022-07-30T21:09:30.031Z,4.90
2022-07-30T21:12:53.262Z,5.13
2022-07-30T21:16:03.525Z,4.55
2022-07-30T21:19:06.874Z,5.72
2022-07-30T21:22:09.597Z,5.67
2022-07-30T21:25:12.708Z,4.22
2022-07-30T21:28:27.106Z,4.28
2022-07-30T21:31:50.999Z,4.85
2022-07-30T21:34:54.727Z,4.88
2022-07-30T21:37:57.556Z,4.60
2022-07-30T21:41:01.085Z,4.18
2022-07-30T21:44:05.346Z,5.85
2022-07-30T21:47:10.750Z,4.78
2022-07-30T21:50:14.096Z,5.03
2022-07-30T21:53:29.493Z,5.93
2022-07-30T21:56:41.876Z,5.22
2022-07-30T21:59:45.766Z,6.13
2022-07-30T22:02:52.766Z,5.07
2022-07-30T22:05:56.960Z,5.82
2022-07-30T22:08:59.634Z,5.85
2022-07-30T22:15:30.047Z,6.37
2022-07-30T22:18:34.203Z,6.40
2022-07-30T22:21:36.886Z,7.88
2022-07-30T22:24:40.447Z,6.35
2022-07-30T22:27:56.034Z,6.35
2022-07-30T22:30:59.874Z,5.87
2022-07-30T22:34:04.013Z,6.10
2022-07-30T22:37:15.571Z,6.18
2022-07-30T22:40:21.267Z,6.60
2022-07-30T22:43:33.127Z,7.28
2022-07-30T22:46:38.294Z,8.33
2022-07-30T22:49:55.799Z,6.40
2022-07-30T22:53:56.594Z,7.38
2022-07-30T22:56:25.457Z,7.10
2022-07-30T22:59:57.722Z,6.30
2022-07-30T23:02:51.189Z,6.30
2022-07-30T23:05:57.248Z,7.25
2022-07-30T23:09:00.056Z,7.03
2022-07-30T23:12:03.331Z,6.60
2022-07-30T23:12:31.475Z,6.30
2022-07-30T23:15:09.027Z,6.65
2022-07-30T23:18:12.180Z,7.53
2022-07-30T23:21:16.129Z,7.78
2022-07-30T23:24:19.866Z,6.65
2022-07-30T23:27:22.507Z,6.53
2022-07-30T23:30:30.123Z,6.97
2022-07-30T23:33:36.598Z,7.57
2022-07-30T23:36:40.689Z,6.50
2022-07-30T23:39:43.472Z,6.82
2022-07-30T23:42:46.357Z,6.65
2022-07-30T23:45:49.644Z,6.93
2022-07-30T23:48:52.999Z,7.13
2022-07-30T23:51:57.227Z,7.03
2022-07-30T23:55:00.871Z,6.72
2022-07-30T23:58:03.682Z,6.72
